sensor_id;sensor_type;location;lat;lon;timestamp;pressure;altitude;pressure_sealevel;temperature;humidity
59055;BME280;44845;51.444;7.460;2024-02-23T00:00:39;96957.03;;;7.94;72.00
59055;BME280;44845;51.444;7.460;2024-02-23T00:03:05;96970.38;;;7.67;71.68
59055;BME280;44845;51.444;7.460;2024-02-23T00:05:30;96987.66;;;7.49;70.51
59055;BME280;44845;51.444;7.460;2024-02-23T00:07:55;96992.97;;;7.46;70.55
59055;BME280;44845;51.444;7.460;2024-02-23T00:10:21;97012.75;;;7.51;71.13
59055;BME280;44845;51.444;7.460;2024-02-23T00:12:46;97016.25;;;7.50;71.29
59055;BME280;44845;51.444;7.460;2024-02-23T00:15:12;97027.84;;;7.43;71.67
59055;BME280;44845;51.444;7.460;2024-02-23T00:17:38;97036.03;;;7.77;71.70
59055;BME280;44845;51.444;7.460;2024-02-23T00:20:05;97069.50;;;7.67;71.36
59055;BME280;44845;51.444;7.460;2024-02-23T00:22:32;97055.19;;;7.55;71.15
59055;BME280;44845;51.444;7.460;2024-02-23T00:24:59;97058.03;;;7.71;70.97
59055;BME280;44845;51.444;7.460;2024-02-23T00:27:24;97070.41;;;7.66;70.61
59055;BME280;44845;51.444;7.460;2024-02-23T00:29:49;97075.75;;;7.63;70.97
59055;BME280;44845;51.444;7.460;2024-02-23T00:32:15;97076.88;;;7.35;70.74
59055;BME280;44845;51.444;7.460;2024-02-23T00:34:40;97079.88;;;7.46;70.29
59055;BME280;44845;51.444;7.460;2024-02-23T00:37:05;97093.59;;;7.51;70.79
59055;BME280;44845;51.444;7.460;2024-02-23T00:39:33;97090.63;;;7.61;71.49
59055;BME280;44845;51.444;7.460;2024-02-23T00:41:58;97096.88;;;7.57;71.92
59055;BME280;44845;51.444;7.460;2024-02-23T00:44:23;97105.22;;;7.65;71.59
59055;BME280;44845;51.444;7.460;2024-02-23T00:46:49;97124.16;;;7.70;71.68
59055;BME280;44845;51.444;7.460;2024-02-23T00:49:14;97125.88;;;7.71;72.04
59055;BME280;44845;51.444;7.460;2024-02-23T00:51:40;97132.53;;;7.79;72.49
59055;BME280;44845;51.444;7.460;2024-02-23T00:54:05;97126.84;;;7.69;72.11
59055;BME280;44845;51.444;7.460;2024-02-23T00:56:33;97152.66;;;7.52;72.46
59055;BME280;44845;51.444;7.460;2024-02-23T00:58:58;97153.81;;;7.45;72.29
59055;BME280;44845;51.444;7.460;2024-02-23T01:01:24;97153.69;;;7.48;72.25
59055;BME280;44845;51.444;7.460;2024-02-23T01:03:51;97155.81;;;7.61;70.88
59055;BME280;44845;51.444;7.460;2024-02-23T01:06:17;97171.47;;;7.61;71.54
59055;BME280;44845;51.444;7.460;2024-02-23T01:08:42;97180.88;;;7.65;70.66
59055;BME280;44845;51.444;7.460;2024-02-23T01:11:08;97172.69;;;7.74;71.08
59055;BME280;44845;51.444;7.460;2024-02-23T01:13:33;97172.81;;;7.71;70.95
59055;BME280;44845;51.444;7.460;2024-02-23T01:15:58;97172.94;;;7.68;70.58
59055;BME280;44845;51.444;7.460;2024-02-23T01:18:24;97178.94;;;7.70;69.97
59055;BME280;44845;51.444;7.460;2024-02-23T01:20:49;97181.31;;;7.76;70.17
59055;BME280;44845;51.444;7.460;2024-02-23T01:23:14;97189.31;;;7.72;69.62
59055;BME280;44845;51.444;7.460;2024-02-23T01:25:40;97180.34;;;7.79;69.92
59055;BME280;44845;51.444;7.460;2024-02-23T01:28:06;97174.66;;;7.69;69.50
59055;BME280;44845;51.444;7.460;2024-02-23T01:30:33;97178.16;;;7.68;69.19
59055;BME280;44845;51.444;7.460;2024-02-23T01:32:59;97179.72;;;7.72;69.87
59055;BME280;44845;51.444;7.460;2024-02-23T01:35:25;97185.31;;;7.63;69.78
59055;BME280;44845;51.444;7.460;2024-02-23T01:37:51;97193.75;;;7.70;69.66
59055;BME280;44845;51.444;7.460;2024-02-23T01:40:16;97190.31;;;7.69;69.34
59055;BME280;44845;51.444;7.460;2024-02-23T01:42:41;97193.03;;;7.66;70.22
59055;BME280;44845;51.444;7.460;2024-02-23T01:45:07;97205.22;;;7.65;69.25
59055;BME280;44845;51.444;7.460;2024-02-23T01:47:32;97201.41;;;7.50;70.40
59055;BME280;44845;51.444;7.460;2024-02-23T01:49:58;97196.44;;;7.44;69.68
59055;BME280;44845;51.444;7.460;2024-02-23T01:52:24;97203.13;;;7.51;69.99
59055;BME280;44845;51.444;7.460;2024-02-23T01:54:51;97218.09;;;7.46;70.18
59055;BME280;44845;51.444;7.460;2024-02-23T01:57:19;97219.91;;;7.44;70.77
59055;BME280;44845;51.444;7.460;2024-02-23T01:59:44;97220.34;;;7.55;70.84
59055;BME280;44845;51.444;7.460;2024-02-23T02:02:10;97222.06;;;7.57;70.86
59055;BME280;44845;51.444;7.460;2024-02-23T02:04:35;97220.59;;;7.49;70.75
59055;BME280;44845;51.444;7.460;2024-02-23T02:07:01;97225.69;;;7.52;71.20
59055;BME280;44845;51.444;7.460;2024-02-23T02:09:26;97230.91;;;7.52;70.55
59055;BME280;44845;51.444;7.460;2024-02-23T02:11:52;97229.31;;;7.48;70.44
59055;BME280;44845;51.444;7.460;2024-02-23T02:14:18;97231.50;;;7.37;70.14
59055;BME280;44845;51.444;7.460;2024-02-23T02:16:44;97230.97;;;7.51;71.07
59055;BME280;44845;51.444;7.460;2024-02-23T02:19:10;97237.38;;;7.42;70.64
59055;BME280;44845;51.444;7.460;2024-02-23T02:21:36;97241.00;;;7.62;70.55
59055;BME280;44845;51.444;7.460;2024-02-23T02:24:02;97235.91;;;7.59;70.27
59055;BME280;44845;51.444;7.460;2024-02-23T02:26:28;97228.88;;;7.61;70.34
59055;BME280;44845;51.444;7.460;2024-02-23T02:28:53;97242.94;;;7.57;69.52
59055;BME280;44845;51.444;7.460;2024-02-23T02:31:19;97232.19;;;7.64;68.75
59055;BME280;44845;51.444;7.460;2024-02-23T02:33:44;97242.94;;;7.57;69.21
59055;BME280;44845;51.444;7.460;2024-02-23T02:36:10;97237.16;;;7.48;69.27
59055;BME280;44845;51.444;7.460;2024-02-23T02:38:36;97251.75;;;7.52;69.38
59055;BME280;44845;51.444;7.460;2024-02-23T02:41:02;97248.19;;;7.31;69.60
59055;BME280;44845;51.444;7.460;2024-02-23T02:43:27;97260.56;;;7.50;69.74
59055;BME280;44845;51.444;7.460;2024-02-23T02:45:53;97262.34;;;7.49;68.88
59055;BME280;44845;51.444;7.460;2024-02-23T02:48:18;97266.53;;;7.53;69.00
59055;BME280;44845;51.444;7.460;2024-02-23T02:50:43;97265.13;;;7.67;69.05
59055;BME280;44845;51.444;7.460;2024-02-23T02:53:09;97262.53;;;7.43;67.50
59055;BME280;44845;51.444;7.460;2024-02-23T02:55:35;97273.41;;;7.30;68.79
59055;BME280;44845;51.444;7.460;2024-02-23T02:58:01;97265.94;;;7.45;69.41
59055;BME280;44845;51.444;7.460;2024-02-23T03:00:26;97279.41;;;7.32;68.78
59055;BME280;44845;51.444;7.460;2024-02-23T03:02:53;97277.28;;;7.20;68.64
59055;BME280;44845;51.444;7.460;2024-02-23T03:05:18;97287.94;;;7.38;68.41
59055;BME280;44845;51.444;7.460;2024-02-23T03:07:43;97286.41;;;7.32;69.16
59055;BME280;44845;51.444;7.460;2024-02-23T03:10:09;97299.16;;;7.40;68.61
59055;BME280;44845;51.444;7.460;2024-02-23T03:12:35;97297.47;;;7.39;68.71
59055;BME280;44845;51.444;7.460;2024-02-23T03:15:00;97295.66;;;7.41;68.61
59055;BME280;44845;51.444;7.460;2024-02-23T03:17:28;97301.31;;;7.52;68.76
59055;BME280;44845;51.444;7.460;2024-02-23T03:19:53;97313.00;;;7.42;69.02
59055;BME280;44845;51.444;7.460;2024-02-23T03:22:19;97315.72;;;7.39;68.63
59055;BME280;44845;51.444;7.460;2024-02-23T03:24:44;97312.78;;;7.48;69.04
59055;BME280;44845;51.444;7.460;2024-02-23T03:27:09;97310.16;;;7.48;68.59
59055;BME280;44845;51.444;7.460;2024-02-23T03:29:35;97325.81;;;7.48;68.80
59055;BME280;44845;51.444;7.460;2024-02-23T03:32:00;97313.00;;;7.42;68.66
59055;BME280;44845;51.444;7.460;2024-02-23T03:34:26;97311.06;;;7.47;68.30
59055;BME280;44845;51.444;7.460;2024-02-23T03:36:52;97305.22;;;7.40;68.22
59055;BME280;44845;51.444;7.460;2024-02-23T03:39:17;97321.50;;;7.47;68.39
59055;BME280;44845;51.444;7.460;2024-02-23T03:41:42;97322.53;;;7.43;68.59
59055;BME280;44845;51.444;7.460;2024-02-23T03:44:08;97311.72;;;7.28;68.85
59055;BME280;44845;51.444;7.460;2024-02-23T03:46:33;97316.50;;;7.41;69.09
59055;BME280;44845;51.444;7.460;2024-02-23T03:48:59;97331.78;;;7.26;69.03
59055;BME280;44845;51.444;7.460;2024-02-23T03:51:25;97328.00;;;7.35;68.76
59055;BME280;44845;51.444;7.460;2024-02-23T03:53:50;97329.09;;;7.29;69.26
59055;BME280;44845;51.444;7.460;2024-02-23T03:56:16;97328.06;;;7.34;68.97
59055;BME280;44845;51.444;7.460;2024-02-23T03:58:41;97333.28;;;7.34;69.48
59055;BME280;44845;51.444;7.460;2024-02-23T04:01:06;97341.63;;;7.18;69.03
59055;BME280;44845;51.444;7.460;2024-02-23T04:03:32;97329.88;;;7.31;69.14
59055;BME280;44845;51.444;7.460;2024-02-23T04:05:57;97340.66;;;7.20;69.57
59055;BME280;44845;51.444;7.460;2024-02-23T04:08:22;97333.66;;;6.97;68.83
59055;BME280;44845;51.444;7.460;2024-02-23T04:10:48;97340.44;;;7.01;68.91
59055;BME280;44845;51.444;7.460;2024-02-23T04:13:13;97343.97;;;7.00;69.36
59055;BME280;44845;51.444;7.460;2024-02-23T04:15:43;97353.53;;;7.25;68.98
59055;BME280;44845;51.444;7.460;2024-02-23T04:18:08;97349.09;;;7.29;68.20
59055;BME280;44845;51.444;7.460;2024-02-23T04:20:33;97350.94;;;7.25;68.70
59055;BME280;44845;51.444;7.460;2024-02-23T04:22:59;97357.41;;;7.15;68.69
59055;BME280;44845;51.444;7.460;2024-02-23T04:25:24;97368.19;;;7.29;68.15
59055;BME280;44845;51.444;7.460;2024-02-23T04:27:50;97361.97;;;7.34;67.77
59055;BME280;44845;51.444;7.460;2024-02-23T04:30:15;97364.63;;;7.32;67.73
59055;BME280;44845;51.444;7.460;2024-02-23T04:32:40;97363.78;;;7.31;67.21
59055;BME280;44845;51.444;7.460;2024-02-23T04:35:06;97375.00;;;7.34;66.89
59055;BME280;44845;51.444;7.460;2024-02-23T04:37:31;97377.59;;;7.34;67.25
59055;BME280;44845;51.444;7.460;2024-02-23T04:39:57;97382.72;;;7.37;67.45
59055;BME280;44845;51.444;7.460;2024-02-23T04:42:22;97380.28;;;7.32;66.73
59055;BME280;44845;51.444;7.460;2024-02-23T04:44:47;97381.78;;;7.39;66.33
59055;BME280;44845;51.444;7.460;2024-02-23T04:47:14;97381.09;;;7.32;67.19
59055;BME280;44845;51.444;7.460;2024-02-23T04:49:40;97373.16;;;7.37;66.63
59055;BME280;44845;51.444;7.460;2024-02-23T04:52:05;97377.44;;;7.38;66.89
59055;BME280;44845;51.444;7.460;2024-02-23T04:54:31;97375.41;;;7.21;66.65
59055;BME280;44845;51.444;7.460;2024-02-23T04:56:56;97376.53;;;7.14;67.26
59055;BME280;44845;51.444;7.460;2024-02-23T04:59:22;97384.09;;;7.21;67.20
59055;BME280;44845;51.444;7.460;2024-02-23T05:01:47;97372.09;;;7.16;67.00
59055;BME280;44845;51.444;7.460;2024-02-23T05:04:12;97383.47;;;7.15;66.91
59055;BME280;44845;51.444;7.460;2024-02-23T05:06:38;97377.28;;;7.17;66.91
59055;BME280;44845;51.444;7.460;2024-02-23T05:09:03;97383.47;;;7.15;67.05
59055;BME280;44845;51.444;7.460;2024-02-23T05:11:29;97393.56;;;7.24;67.21
59055;BME280;44845;51.444;7.460;2024-02-23T05:13:54;97386.84;;;7.17;66.39
59055;BME280;44845;51.444;7.460;2024-02-23T05:16:19;97389.25;;;7.23;66.66
59055;BME280;44845;51.444;7.460;2024-02-23T05:18:45;97384.03;;;7.23;67.43
59055;BME280;44845;51.444;7.460;2024-02-23T05:21:12;97391.53;;;7.32;66.93
59055;BME280;44845;51.444;7.460;2024-02-23T05:23:37;97391.00;;;7.23;66.42
59055;BME280;44845;51.444;7.460;2024-02-23T05:26:02;97387.31;;;7.30;66.60
59055;BME280;44845;51.444;7.460;2024-02-23T05:28:28;97389.84;;;7.31;65.94
59055;BME280;44845;51.444;7.460;2024-02-23T05:30:54;97391.75;;;7.26;66.44
59055;BME280;44845;51.444;7.460;2024-02-23T05:33:20;97383.06;;;7.26;67.25
59055;BME280;44845;51.444;7.460;2024-02-23T05:35:46;97382.13;;;7.28;66.29
59055;BME280;44845;51.444;7.460;2024-02-23T05:38:16;97380.44;;;7.27;66.45
59055;BME280;44845;51.444;7.460;2024-02-23T05:40:42;97372.38;;;7.08;66.59
59055;BME280;44845;51.444;7.460;2024-02-23T05:43:08;97363.41;;;7.17;65.99
59055;BME280;44845;51.444;7.460;2024-02-23T05:45:33;97373.56;;;7.25;66.17
59055;BME280;44845;51.444;7.460;2024-02-23T05:47:58;97371.69;;;7.28;65.90
59055;BME280;44845;51.444;7.460;2024-02-23T05:50:24;97362.13;;;7.29;65.32
59055;BME280;44845;51.444;7.460;2024-02-23T05:52:49;97359.72;;;7.23;65.32
59055;BME280;44845;51.444;7.460;2024-02-23T05:55:15;97367.53;;;7.23;65.07
59055;BME280;44845;51.444;7.460;2024-02-23T05:57:40;97372.16;;;7.14;65.34
59055;BME280;44845;51.444;7.460;2024-02-23T06:00:06;97375.41;;;7.21;65.26
59055;BME280;44845;51.444;7.460;2024-02-23T06:02:32;97367.69;;;7.18;65.53
59055;BME280;44845;51.444;7.460;2024-02-23T06:04:58;97355.47;;;7.20;65.72
59055;BME280;44845;51.444;7.460;2024-02-23T06:07:23;97360.78;;;7.17;64.65
59055;BME280;44845;51.444;7.460;2024-02-23T06:09:56;97365.25;;;7.13;66.06
59055;BME280;44845;51.444;7.460;2024-02-23T06:12:22;97350.09;;;6.99;65.76
59055;BME280;44845;51.444;7.460;2024-02-23T06:14:47;97361.09;;;7.07;65.06
59055;BME280;44845;51.444;7.460;2024-02-23T06:17:13;97357.72;;;7.05;65.88
59055;BME280;44845;51.444;7.460;2024-02-23T06:19:38;97351.81;;;6.98;65.62
59055;BME280;44845;51.444;7.460;2024-02-23T06:22:03;97371.72;;;7.01;65.33
59055;BME280;44845;51.444;7.460;2024-02-23T06:24:29;97369.25;;;6.98;65.33
59055;BME280;44845;51.444;7.460;2024-02-23T06:26:54;97372.03;;;6.92;65.67
59055;BME280;44845;51.444;7.460;2024-02-23T06:29:19;97367.03;;;6.85;66.14
59055;BME280;44845;51.444;7.460;2024-02-23T06:31:45;97384.91;;;6.96;65.70
59055;BME280;44845;51.444;7.460;2024-02-23T06:34:14;97382.81;;;6.81;65.63
59055;BME280;44845;51.444;7.460;2024-02-23T06:36:39;97388.91;;;6.80;66.08
59055;BME280;44845;51.444;7.460;2024-02-23T06:39:05;97384.44;;;6.83;65.94
59055;BME280;44845;51.444;7.460;2024-02-23T06:41:30;97379.06;;;6.90;66.42
59055;BME280;44845;51.444;7.460;2024-02-23T06:43:56;97372.03;;;6.92;66.63
59055;BME280;44845;51.444;7.460;2024-02-23T06:46:21;97371.00;;;6.97;66.26
59055;BME280;44845;51.444;7.460;2024-02-23T06:48:47;97369.03;;;7.04;66.16
59055;BME280;44845;51.444;7.460;2024-02-23T06:51:12;97375.13;;;7.03;65.71
59055;BME280;44845;51.444;7.460;2024-02-23T06:53:38;97374.16;;;7.06;65.80
59055;BME280;44845;51.444;7.460;2024-02-23T06:56:03;97375.28;;;6.98;66.05
59055;BME280;44845;51.444;7.460;2024-02-23T06:58:29;97371.63;;;7.04;65.58
59055;BME280;44845;51.444;7.460;2024-02-23T07:00:54;97375.03;;;7.06;66.02
59055;BME280;44845;51.444;7.460;2024-02-23T07:03:19;97376.84;;;7.04;65.60
59055;BME280;44845;51.444;7.460;2024-02-23T07:05:45;97382.94;;;7.03;65.72
59055;BME280;44845;51.444;7.460;2024-02-23T07:08:11;97393.34;;;7.05;66.43
59055;BME280;44845;51.444;7.460;2024-02-23T07:10:37;97391.53;;;7.07;66.29
59055;BME280;44845;51.444;7.460;2024-02-23T07:13:02;97386.72;;;6.94;65.06
59055;BME280;44845;51.444;7.460;2024-02-23T07:15:27;97384.97;;;6.95;66.52
59055;BME280;44845;51.444;7.460;2024-02-23T07:17:53;97384.16;;;6.93;66.83
59055;BME280;44845;51.444;7.460;2024-02-23T07:20:18;97382.06;;;7.04;66.06
59055;BME280;44845;51.444;7.460;2024-02-23T07:22:44;97391.88;;;6.96;66.64
59055;BME280;44845;51.444;7.460;2024-02-23T07:25:11;97386.06;;;6.87;66.65
59055;BME280;44845;51.444;7.460;2024-02-23T07:27:36;97391.69;;;6.75;66.64
59055;BME280;44845;51.444;7.460;2024-02-23T07:30:01;97391.75;;;6.72;67.30
59055;BME280;44845;51.444;7.460;2024-02-23T07:32:28;97398.31;;;6.85;67.92
59055;BME280;44845;51.444;7.460;2024-02-23T07:34:55;97401.53;;;6.65;68.11
59055;BME280;44845;51.444;7.460;2024-02-23T07:37:20;97398.78;;;6.70;67.92
59055;BME280;44845;51.444;7.460;2024-02-23T07:39:45;97400.03;;;6.85;67.05
59055;BME280;44845;51.444;7.460;2024-02-23T07:42:10;97398.56;;;6.76;68.23
59055;BME280;44845;51.444;7.460;2024-02-23T07:44:36;97398.31;;;6.85;67.64
59055;BME280;44845;51.444;7.460;2024-02-23T07:47:02;97396.59;;;6.84;67.89
59055;BME280;44845;51.444;7.460;2024-02-23T07:49:28;97392.88;;;6.92;67.79
59055;BME280;44845;51.444;7.460;2024-02-23T07:51:53;97401.50;;;6.94;67.71
59055;BME280;44845;51.444;7.460;2024-02-23T07:54:19;97390.75;;;7.03;67.72
59055;BME280;44845;51.444;7.460;2024-02-23T07:56:44;97384.91;;;6.96;67.24
59055;BME280;44845;51.444;7.460;2024-02-23T07:59:09;97386.16;;;6.84;66.63
59055;BME280;44845;51.444;7.460;2024-02-23T08:01:35;97391.03;;;6.95;68.05
59055;BME280;44845;51.444;7.460;2024-02-23T08:04:00;97389.38;;;6.93;67.41
59055;BME280;44845;51.444;7.460;2024-02-23T08:06:26;97383.25;;;6.94;67.61
59055;BME280;44845;51.444;7.460;2024-02-23T08:08:51;97379.75;;;6.95;67.11
59055;BME280;44845;51.444;7.460;2024-02-23T08:11:19;97392.09;;;6.90;67.52
59055;BME280;44845;51.444;7.460;2024-02-23T08:13:44;97380.66;;;6.94;67.48
59055;BME280;44845;51.444;7.460;2024-02-23T08:16:09;97394.19;;;6.78;67.32
59055;BME280;44845;51.444;7.460;2024-02-23T08:18:35;97408.91;;;6.79;67.74
59055;BME280;44845;51.444;7.460;2024-02-23T08:21:01;97405.09;;;6.90;67.50
59055;BME280;44845;51.444;7.460;2024-02-23T08:23:28;97405.84;;;6.93;67.96
59055;BME280;44845;51.444;7.460;2024-02-23T08:25:55;97419.88;;;6.89;67.42
59055;BME280;44845;51.444;7.460;2024-02-23T08:28:22;97411.72;;;6.73;67.80
59055;BME280;44845;51.444;7.460;2024-02-23T08:30:47;97421.47;;;6.93;68.14
59055;BME280;44845;51.444;7.460;2024-02-23T08:33:13;97417.34;;;6.87;67.72
59055;BME280;44845;51.444;7.460;2024-02-23T08:35:39;97410.06;;;6.70;68.15
59055;BME280;44845;51.444;7.460;2024-02-23T08:38:04;97409.94;;;7.01;67.69
59055;BME280;44845;51.444;7.460;2024-02-23T08:40:29;97422.97;;;7.01;67.83
59055;BME280;44845;51.444;7.460;2024-02-23T08:42:55;97408.41;;;6.95;67.33
59055;BME280;44845;51.444;7.460;2024-02-23T08:45:20;97418.38;;;7.09;67.38
59055;BME280;44845;51.444;7.460;2024-02-23T08:47:45;97416.09;;;7.00;67.75
59055;BME280;44845;51.444;7.460;2024-02-23T08:50:11;97430.16;;;6.94;67.89
59055;BME280;44845;51.444;7.460;2024-02-23T08:52:36;97418.06;;;7.20;67.67
59055;BME280;44845;51.444;7.460;2024-02-23T08:55:02;97420.13;;;7.08;68.07
59055;BME280;44845;51.444;7.460;2024-02-23T08:57:27;97414.53;;;7.21;67.36
59055;BME280;44845;51.444;7.460;2024-02-23T08:59:53;97429.69;;;7.08;67.20
59055;BME280;44845;51.444;7.460;2024-02-23T09:02:18;97412.94;;;7.17;67.24
59055;BME280;44845;51.444;7.460;2024-02-23T09:04:44;97423.84;;;7.01;67.14
59055;BME280;44845;51.444;7.460;2024-02-23T09:07:10;97433.88;;;7.14;67.38
59055;BME280;44845;51.444;7.460;2024-02-23T09:09:36;97429.91;;;7.02;67.11
59055;BME280;44845;51.444;7.460;2024-02-23T09:12:01;97422.75;;;7.08;67.16
59055;BME280;44845;51.444;7.460;2024-02-23T09:14:27;97422.19;;;7.26;66.93
59055;BME280;44845;51.444;7.460;2024-02-23T09:16:52;97424.91;;;7.48;67.01
59055;BME280;44845;51.444;7.460;2024-02-23T09:19:18;97411.88;;;7.48;66.59
59055;BME280;44845;51.444;7.460;2024-02-23T09:21:44;97424.25;;;7.69;66.19
59055;BME280;44845;51.444;7.460;2024-02-23T09:24:09;97435.72;;;7.63;65.75
59055;BME280;44845;51.444;7.460;2024-02-23T09:26:34;97429.31;;;7.72;65.75
59055;BME280;44845;51.444;7.460;2024-02-23T09:29:00;97435.81;;;7.60;65.40
59055;BME280;44845;51.444;7.460;2024-02-23T09:31:25;97438.81;;;7.74;66.10
59055;BME280;44845;51.444;7.460;2024-02-23T09:33:54;97427.03;;;7.88;65.41
59055;BME280;44845;51.444;7.460;2024-02-23T09:36:19;97423.66;;;7.84;64.67
59055;BME280;44845;51.444;7.460;2024-02-23T09:38:44;97446.25;;;7.85;63.95
59055;BME280;44845;51.444;7.460;2024-02-23T09:41:17;97436.16;;;7.76;64.51
59055;BME280;44845;51.444;7.460;2024-02-23T09:43:44;97435.31;;;7.75;63.36
59055;BME280;44845;51.444;7.460;2024-02-23T09:46:11;97432.94;;;7.93;65.73
59055;BME280;44845;51.444;7.460;2024-02-23T09:48:37;97443.84;;;8.05;65.47
59055;BME280;44845;51.444;7.460;2024-02-23T09:51:04;97436.56;;;7.89;64.56
59055;BME280;44845;51.444;7.460;2024-02-23T09:53:31;97436.69;;;7.86;64.74
59055;BME280;44845;51.444;7.460;2024-02-23T09:55:57;97430.44;;;7.90;65.79
59055;BME280;44845;51.444;7.460;2024-02-23T09:58:26;97438.97;;;7.95;64.91
59055;BME280;44845;51.444;7.460;2024-02-23T10:00:55;97443.38;;;7.93;64.69
59055;BME280;44845;51.444;7.460;2024-02-23T10:03:21;97438.78;;;8.00;64.52
59055;BME280;44845;51.444;7.460;2024-02-23T10:05:51;97442.47;;;7.94;64.00
59055;BME280;44845;51.444;7.460;2024-02-23T10:08:16;97446.63;;;8.00;64.24
59055;BME280;44845;51.444;7.460;2024-02-23T10:10:41;97437.91;;;8.01;64.59
59055;BME280;44845;51.444;7.460;2024-02-23T10:13:07;97438.00;;;7.98;64.68
59055;BME280;44845;51.444;7.460;2024-02-23T10:15:33;97446.78;;;7.95;64.90
59055;BME280;44845;51.444;7.460;2024-02-23T10:17:58;97445.66;;;8.03;63.39
59055;BME280;44845;51.444;7.460;2024-02-23T10:20:24;97443.50;;;7.90;65.04
59055;BME280;44845;51.444;7.460;2024-02-23T10:22:49;97449.75;;;8.10;63.51
59055;BME280;44845;51.444;7.460;2024-02-23T10:25:15;97450.09;;;8.00;65.61
59055;BME280;44845;51.444;7.460;2024-02-23T10:27:41;97449.31;;;8.22;64.46
59055;BME280;44845;51.444;7.460;2024-02-23T10:30:08;97454.91;;;8.11;65.45
59055;BME280;44845;51.444;7.460;2024-02-23T10:32:38;97455.22;;;8.04;65.41
59055;BME280;44845;51.444;7.460;2024-02-23T10:35:16;97448.69;;;8.16;65.82
59055;BME280;44845;51.444;7.460;2024-02-23T10:37:43;97447.59;;;8.21;65.72
59055;BME280;44845;51.444;7.460;2024-02-23T10:40:12;97444.19;;;8.19;66.07
59055;BME280;44845;51.444;7.460;2024-02-23T10:42:45;97448.69;;;8.16;65.09
59055;BME280;44845;51.444;7.460;2024-02-23T10:45:17;97440.94;;;8.37;65.89
59055;BME280;44845;51.444;7.460;2024-02-23T10:47:43;97451.50;;;8.33;65.29
59055;BME280;44845;51.444;7.460;2024-02-23T10:50:09;97445.78;;;8.48;65.11
59055;BME280;44845;51.444;7.460;2024-02-23T10:52:36;97446.78;;;8.43;64.42
59055;BME280;44845;51.444;7.460;2024-02-23T10:55:02;97449.13;;;8.51;64.08
59055;BME280;44845;51.444;7.460;2024-02-23T10:57:31;97445.53;;;8.54;63.83
59055;BME280;44845;51.444;7.460;2024-02-23T10:59:58;97449.72;;;8.60;62.89
59055;BME280;44845;51.444;7.460;2024-02-23T11:02:24;97441.88;;;8.60;63.64
59055;BME280;44845;51.444;7.460;2024-02-23T11:04:51;97441.63;;;8.66;64.02
59055;BME280;44845;51.444;7.460;2024-02-23T11:07:20;97444.50;;;8.82;64.85
59055;BME280;44845;51.444;7.460;2024-02-23T11:09:54;97447.84;;;8.86;64.06
59055;BME280;44845;51.444;7.460;2024-02-23T11:12:24;97459.63;;;8.74;63.25
59055;BME280;44845;51.444;7.460;2024-02-23T11:14:49;97454.97;;;8.82;63.13
59055;BME280;44845;51.444;7.460;2024-02-23T11:17:19;97455.44;;;8.92;63.18
59055;BME280;44845;51.444;7.460;2024-02-23T11:19:46;97454.28;;;8.77;62.83
59055;BME280;44845;51.444;7.460;2024-02-23T11:22:13;97456.03;;;8.76;61.70
59055;BME280;44845;51.444;7.460;2024-02-23T11:24:42;97448.31;;;8.73;63.15
59055;BME280;44845;51.444;7.460;2024-02-23T11:27:14;97437.81;;;8.75;62.72
59055;BME280;44845;51.444;7.460;2024-02-23T11:29:39;97437.59;;;8.57;61.18
59055;BME280;44845;51.444;7.460;2024-02-23T11:32:13;97440.38;;;8.52;62.36
59055;BME280;44845;51.444;7.460;2024-02-23T11:34:39;97438.66;;;8.51;62.60
59055;BME280;44845;51.444;7.460;2024-02-23T11:37:11;97441.22;;;8.53;62.04
59055;BME280;44845;51.444;7.460;2024-02-23T11:39:39;97426.53;;;8.50;62.95
59055;BME280;44845;51.444;7.460;2024-02-23T11:42:06;97439.09;;;8.40;63.62
59055;BME280;44845;51.444;7.460;2024-02-23T11:44:31;97429.97;;;8.51;62.68
59055;BME280;44845;51.444;7.460;2024-02-23T11:46:58;97439.75;;;8.45;63.54
59055;BME280;44845;51.444;7.460;2024-02-23T11:49:30;97428.16;;;8.53;62.32
59055;BME280;44845;51.444;7.460;2024-02-23T11:51:55;97416.53;;;8.62;61.62
59055;BME280;44845;51.444;7.460;2024-02-23T11:54:22;97417.69;;;8.77;60.95
59055;BME280;44845;51.444;7.460;2024-02-23T11:56:48;97421.88;;;8.81;62.52
59055;BME280;44845;51.444;7.460;2024-02-23T11:59:15;97445.16;;;8.87;62.87
59055;BME280;44845;51.444;7.460;2024-02-23T12:01:40;97427.09;;;9.04;62.47
59055;BME280;44845;51.444;7.460;2024-02-23T12:04:06;97431.16;;;9.11;62.17
59055;BME280;44845;51.444;7.460;2024-02-23T12:06:33;97432.94;;;9.10;61.80
59055;BME280;44845;51.444;7.460;2024-02-23T12:08:58;97427.50;;;9.15;60.46
59055;BME280;44845;51.444;7.460;2024-02-23T12:11:24;97433.81;;;9.09;60.98
59055;BME280;44845;51.444;7.460;2024-02-23T12:13:50;97430.78;;;9.20;60.57
59055;BME280;44845;51.444;7.460;2024-02-23T12:16:16;97424.31;;;9.29;60.41
59055;BME280;44845;51.444;7.460;2024-02-23T12:18:41;97444.66;;;9.22;61.44
59055;BME280;44845;51.444;7.460;2024-02-23T12:21:08;97429.06;;;9.19;60.45
59055;BME280;44845;51.444;7.460;2024-02-23T12:23:45;97445.13;;;9.10;60.60
59055;BME280;44845;51.444;7.460;2024-02-23T12:26:13;97449.47;;;8.88;60.34
59055;BME280;44845;51.444;7.460;2024-02-23T12:28:40;97453.56;;;8.96;59.85
59055;BME280;44845;51.444;7.460;2024-02-23T12:31:06;97449.38;;;8.92;61.41
59055;BME280;44845;51.444;7.460;2024-02-23T12:33:33;97455.19;;;9.21;61.50
59055;BME280;44845;51.444;7.460;2024-02-23T12:35:59;97449.28;;;9.16;60.40
59055;BME280;44845;51.444;7.460;2024-02-23T12:38:25;97456.03;;;9.21;61.52
59055;BME280;44845;51.444;7.460;2024-02-23T12:40:51;97447.75;;;9.10;61.62
59055;BME280;44845;51.444;7.460;2024-02-23T12:43:17;97450.84;;;9.20;60.45
59055;BME280;44845;51.444;7.460;2024-02-23T12:45:42;97444.59;;;9.24;60.05
59055;BME280;44845;51.444;7.460;2024-02-23T12:48:10;97448.78;;;9.28;60.57
59055;BME280;44845;51.444;7.460;2024-02-23T12:50:35;97452.88;;;9.34;61.38
59055;BME280;44845;51.444;7.460;2024-02-23T12:53:01;97448.38;;;9.17;59.75
59055;BME280;44845;51.444;7.460;2024-02-23T12:55:27;97450.34;;;9.32;60.27
59055;BME280;44845;51.444;7.460;2024-02-23T12:57:52;97455.22;;;9.19;61.03
59055;BME280;44845;51.444;7.460;2024-02-23T13:00:17;97447.44;;;9.18;61.37
59055;BME280;44845;51.444;7.460;2024-02-23T13:02:43;97450.16;;;8.94;60.79